Time;durP1;ratioP1;P1;durP2;ratioP2;P2;SDS_P1;SDS_P2;PMS_P1;PMS_P2;Temp;Humidity;BMP_temperature;BMP_pressure;BME280_temperature;BME280_humidity;BME280_pressure;Samples;Min_cycle;Max_cycle;Signal;HPM_P1;HPM_P2
2022/01/08 00:00:40;;;;;;;17.17;7.70;;;;;;;2.06;75.45;102290.64;1914071;75;21180;-65
2022/01/08 00:03:09;;;;;;;19.25;7.85;;;;;;;2.04;75.43;102297.53;1913898;75;21058;-64
2022/01/08 00:05:38;;;;;;;20.20;8.13;;;;;;;2.00;75.50;102300.48;1913975;75;21169;-64
2022/01/08 00:08:07;;;;;;;16.10;7.50;;;;;;;1.95;75.73;102294.73;1913951;75;21482;-64
2022/01/08 00:10:35;;;;;;;21.35;7.62;;;;;;;1.94;75.76;102296.47;1913917;75;21116;-65
2022/01/08 00:13:05;;;;;;;18.80;7.72;;;;;;;1.94;75.69;102297.77;1913905;75;21493;-64
2022/01/08 00:15:35;;;;;;;17.15;7.10;;;;;;;1.90;75.73;102292.92;1913814;75;21120;-64
2022/01/08 00:18:03;;;;;;;17.37;7.83;;;;;;;1.90;75.80;102292.02;1913928;75;21509;-63
2022/01/08 00:20:32;;;;;;;16.52;6.40;;;;;;;1.86;75.82;102287.61;1913932;75;21062;-63
2022/01/08 00:23:01;;;;;;;21.70;6.97;;;;;;;1.84;75.70;102285.41;1914034;75;21538;-63
2022/01/08 00:25:30;;;;;;;19.77;7.28;;;;;;;1.81;75.55;102281.04;1914030;75;21042;-63
2022/01/08 00:27:58;;;;;;;16.02;6.78;;;;;;;1.76;75.48;102277.45;1906121;74;21513;-63
2022/01/08 00:30:28;;;;;;;19.37;8.30;;;;;;;1.75;75.47;102273.09;1904336;75;21615;-64
2022/01/08 00:32:58;;;;;;;14.68;7.00;;;;;;;1.72;75.50;102274.34;1904401;75;21008;-63
2022/01/08 00:35:28;;;;;;;22.35;7.97;;;;;;;1.70;75.56;102273.44;1904484;75;21039;-63
2022/01/08 00:37:57;;;;;;;19.35;7.47;;;;;;;1.66;75.63;102268.59;1904553;75;21043;-64
2022/01/08 00:40:26;;;;;;;16.60;6.62;;;;;;;1.63;75.58;102271.11;1904447;75;21113;-63
2022/01/08 00:42:54;;;;;;;19.17;7.72;;;;;;;1.63;75.61;102268.95;1904282;75;21047;-64
2022/01/08 00:45:23;;;;;;;12.70;6.15;;;;;;;1.59;75.58;102270.59;1904394;75;21079;-67
2022/01/08 00:47:52;;;;;;;16.17;6.80;;;;;;;1.58;75.49;102264.06;1904536;75;21020;-66
2022/01/08 00:50:21;;;;;;;16.73;6.62;;;;;;;1.54;75.41;102270.47;1904440;75;21082;-65
2022/01/08 00:52:50;;;;;;;17.50;6.55;;;;;;;1.53;75.38;102275.62;1904408;75;21505;-63
2022/01/08 00:55:19;;;;;;;17.92;7.90;;;;;;;1.52;75.39;102269.56;1904317;75;21067;-65
2022/01/08 00:57:48;;;;;;;16.90;7.78;;;;;;;1.50;75.52;102269.95;1904414;75;21125;-65
2022/01/08 01:00:17;;;;;;;16.42;7.53;;;;;;;1.50;75.73;102265.20;1894604;75;21133;-66
2022/01/08 01:02:46;;;;;;;25.65;6.95;;;;;;;1.57;75.66;102259.70;1886909;76;21518;-65
2022/01/08 01:05:14;;;;;;;22.05;8.13;;;;;;;1.64;75.69;102258.60;1886947;76;21505;-64
2022/01/08 01:07:43;;;;;;;18.98;7.20;;;;;;;1.74;75.71;102254.05;1886960;76;21067;-65
2022/01/08 01:10:12;;;;;;;16.55;7.05;;;;;;;1.82;75.68;102252.91;1887104;76;21042;-65
2022/01/08 01:12:41;;;;;;;13.83;6.47;;;;;;;1.90;75.69;102253.96;1887019;76;21170;-65
2022/01/08 01:15:12;;;;;;;15.32;6.95;;;;;;;1.99;75.64;102253.69;1887171;76;21114;-64
2022/01/08 01:17:41;;;;;;;22.58;6.60;;;;;;;2.08;75.37;102244.78;1886902;75;21594;-65
2022/01/08 01:20:13;;;;;;;17.42;6.40;;;;;;;2.14;75.15;102238.42;1886913;76;21462;-65
2022/01/08 01:25:31;;;;;;;15.23;6.47;;;;;;;2.21;75.09;102233.77;1886952;76;21102;-68
2022/01/08 01:41:10;;;;;;;11.60;5.80;;;;;;;2.30;75.22;102243.05;1887425;75;21070;-67
2022/01/08 01:41:32;;;;;;;13.40;6.08;;;;;;;2.52;74.77;102251.26;1901841;75;21284;-66
2022/01/08 01:49:11;;;;;;;14.55;6.10;;;;;;;2.61;74.49;102247.53;1901849;75;21439;-64
2022/01/08 01:51:40;;;;;;;12.37;6.70;;;;;;;2.63;74.34;102243.22;1902052;75;21132;-66
2022/01/08 01:54:09;;;;;;;13.43;4.67;;;;;;;2.66;74.30;102251.09;1901883;75;21154;-65
2022/01/08 01:56:39;;;;;;;14.98;5.75;;;;;;;2.65;74.34;102251.92;1902115;75;21482;-65
2022/01/08 01:59:08;;;;;;;11.70;4.83;;;;;;;2.66;74.25;102248.48;1902909;75;21588;-65
2022/01/08 02:01:36;;;;;;;9.68;3.87;;;;;;;2.66;74.14;102245.89;1913866;75;21074;-63
2022/01/08 02:04:05;;;;;;;11.60;4.95;;;;;;;2.67;74.11;102254.56;1913809;75;21149;-64
2022/01/08 02:06:34;;;;;;;12.15;5.60;;;;;;;2.64;74.03;102248.89;1913682;75;21133;-63
2022/01/08 02:09:03;;;;;;;12.00;5.37;;;;;;;2.65;74.03;102246.72;1914088;75;21055;-64
2022/01/08 02:11:31;;;;;;;12.50;6.10;;;;;;;2.63;73.98;102248.42;1913849;75;21138;-63
2022/01/08 02:14:06;;;;;;;14.68;5.85;;;;;;;2.65;73.92;102255.83;1913874;75;21046;-64
2022/01/08 02:16:35;;;;;;;14.35;6.00;;;;;;;2.64;73.90;102258.42;1913930;75;21074;-64
2022/01/08 02:19:04;;;;;;;10.80;4.70;;;;;;;2.60;73.76;102249.69;1913742;75;21108;-64
2022/01/08 02:21:33;;;;;;;11.50;6.03;;;;;;;2.58;73.78;102259.16;1913872;75;21077;-64
2022/01/08 02:24:02;;;;;;;15.98;6.65;;;;;;;2.55;73.75;102261.73;1913757;75;21091;-63
2022/01/08 02:26:31;;;;;;;11.85;5.10;;;;;;;2.51;73.75;102261.22;1913982;75;21614;-64
2022/01/08 02:28:59;;;;;;;16.40;6.40;;;;;;;2.51;73.77;102256.02;1909108;75;21176;-64
2022/01/08 02:31:28;;;;;;;14.40;5.97;;;;;;;2.49;73.77;102260.29;1906782;75;21145;-64
2022/01/08 02:33:57;;;;;;;12.30;5.78;;;;;;;2.48;73.74;102255.95;1906889;75;21032;-63
2022/01/08 02:36:25;;;;;;;14.53;6.08;;;;;;;2.48;73.73;102258.55;1906996;75;21510;-62
2022/01/08 02:38:54;;;;;;;12.98;5.90;;;;;;;2.48;73.73;102258.13;1906900;75;21067;-63
2022/01/08 02:41:23;;;;;;;12.98;5.95;;;;;;;2.50;73.65;102256.86;1906994;75;21051;-63
2022/01/08 02:43:53;;;;;;;13.72;6.17;;;;;;;2.50;73.62;102255.55;1906938;75;21062;-64
2022/01/08 02:46:22;;;;;;;16.02;6.58;;;;;;;2.50;73.55;102260.76;1907081;75;21199;-64
2022/01/08 02:48:51;;;;;;;13.98;7.20;;;;;;;2.49;73.58;102261.19;1907096;75;21160;-65
2022/01/08 02:51:19;;;;;;;17.77;8.05;;;;;;;2.49;73.57;102265.48;1907010;75;21039;-65
2022/01/08 02:53:48;;;;;;;13.03;6.17;;;;;;;2.51;73.53;102261.22;1907026;75;21059;-64
2022/01/08 02:56:17;;;;;;;18.15;9.33;;;;;;;2.51;73.47;102262.09;1907214;75;21117;-68
2022/01/08 02:58:46;;;;;;;17.10;7.40;;;;;;;2.47;73.47;102261.99;1906901;75;21485;-66
2022/01/08 03:01:14;;;;;;;13.25;6.55;;;;;;;2.45;73.50;102262.39;1886046;75;21055;-68
2022/01/08 03:03:43;;;;;;;12.13;6.80;;;;;;;2.44;73.51;102258.05;1885205;76;21074;-65
2022/01/08 03:06:12;;;;;;;10.80;4.65;;;;;;;2.45;73.52;102254.19;1885169;76;21076;-64
2022/01/08 03:08:41;;;;;;;14.83;7.00;;;;;;;2.42;73.44;102260.63;1885112;76;21580;-65
2022/01/08 03:11:10;;;;;;;16.62;6.78;;;;;;;2.39;73.47;102252.75;1885086;76;21066;-66
2022/01/08 03:13:38;;;;;;;17.50;7.87;;;;;;;2.41;73.49;102254.09;1885168;76;21082;-62
2022/01/08 03:16:08;;;;;;;15.10;6.12;;;;;;;2.40;73.46;102249.72;1885239;76;21047;-66
2022/01/08 03:18:37;;;;;;;16.75;6.62;;;;;;;2.38;73.49;102247.52;1885156;76;21571;-66
2022/01/08 03:21:15;;;;;;;14.53;5.37;;;;;;;2.37;73.48;102251.84;1885162;76;21526;-66
2022/01/08 03:23:55;;;;;;;15.58;6.45;;;;;;;2.38;73.45;102252.31;1885067;76;21582;-66
2022/01/08 03:26:20;;;;;;;13.70;7.17;;;;;;;2.37;73.42;102258.78;1883653;76;21060;-66
2022/01/08 03:28:49;;;;;;;17.48;7.25;;;;;;;2.35;73.49;102255.28;1890254;75;21149;-65
2022/01/08 03:31:18;;;;;;;17.98;6.92;;;;;;;2.36;73.53;102250.52;1901888;75;21611;-66
2022/01/08 03:33:48;;;;;;;14.58;5.67;;;;;;;2.35;73.53;102245.75;1902077;75;21031;-66
2022/01/08 03:36:18;;;;;;;17.23;6.70;;;;;;;2.30;73.60;102240.88;1901817;75;21501;-66
2022/01/08 03:38:46;;;;;;;12.63;6.22;;;;;;;2.29;73.68;102245.64;1901920;75;21494;-66
2022/01/08 03:41:15;;;;;;;14.25;5.95;;;;;;;2.27;73.70;102241.70;1901970;75;21518;-66
2022/01/08 03:43:44;;;;;;;16.45;6.80;;;;;;;2.27;73.65;102244.31;1901936;75;21548;-66
2022/01/08 03:46:13;;;;;;;13.03;5.17;;;;;;;2.26;73.60;102245.14;1902034;75;21039;-66
2022/01/08 03:48:46;;;;;;;22.42;7.17;;;;;;;2.26;73.51;102246.44;1901816;75;21098;-65
2022/01/08 03:51:15;;;;;;;14.25;6.22;;;;;;;2.23;73.53;102247.70;1901981;75;21028;-67
2022/01/08 03:53:44;;;;;;;13.93;6.15;;;;;;;2.23;73.48;102246.41;1902168;75;21054;-67
2022/01/08 03:56:13;;;;;;;14.80;6.10;;;;;;;2.23;73.45;102255.50;1901965;75;21552;-67
2022/01/08 03:58:41;;;;;;;12.40;5.65;;;;;;;2.22;73.46;102251.13;1901950;75;21145;-66
2022/01/08 04:01:10;;;;;;;13.65;6.33;;;;;;;2.21;73.46;102254.56;1912978;75;21006;-67
2022/01/08 04:03:39;;;;;;;13.65;6.05;;;;;;;2.21;73.48;102257.16;1914075;75;21529;-62
2022/01/08 04:06:08;;;;;;;15.08;6.95;;;;;;;2.19;73.49;102257.99;1913892;75;21128;-62
2022/01/08 04:08:37;;;;;;;15.08;6.28;;;;;;;2.16;73.53;102262.72;1913922;75;21502;-63
2022/01/08 04:11:05;;;;;;;18.30;6.80;;;;;;;2.18;73.50;102262.75;1913926;75;21049;-63
2022/01/08 04:13:37;;;;;;;14.70;6.92;;;;;;;2.18;73.49;102257.13;1913983;75;21121;-64
2022/01/08 04:16:15;;;;;;;17.48;6.72;;;;;;;2.18;73.57;102264.92;1913759;75;21114;-63
2022/01/08 04:18:41;;;;;;;16.60;6.42;;;;;;;2.17;73.56;102267.05;1913572;75;21133;-64
2022/01/08 04:21:52;;;;;;;14.83;7.35;;;;;;;2.18;73.50;102262.32;1913925;75;21047;-64
2022/01/08 04:23:42;;;;;;;19.50;7.30;;;;;;;2.21;73.44;102257.16;1909212;75;21054;-67
2022/01/08 04:26:11;;;;;;;8.90;4.20;;;;;;;2.24;73.38;102265.03;1913816;75;21141;-67
2022/01/08 04:28:39;;;;;;;15.38;6.47;;;;;;;2.23;73.34;102260.70;1913908;75;21047;-66
2022/01/08 04:31:08;;;;;;;16.15;7.97;;;;;;;2.22;73.29;102261.53;1907224;74;21090;-67
2022/01/08 04:33:36;;;;;;;19.95;8.45;;;;;;;2.22;73.32;102266.73;1907002;74;21019;-66
2022/01/08 04:36:06;;;;;;;17.77;7.20;;;;;;;2.23;73.34;102271.49;1906908;75;21546;-67
2022/01/08 04:38:35;;;;;;;19.92;7.17;;;;;;;2.21;73.33;102267.56;1906885;75;21129;-66
2022/01/08 04:41:03;;;;;;;14.03;6.03;;;;;;;2.21;73.43;102264.95;1906996;75;21603;-66
2022/01/08 04:43:33;;;;;;;12.07;5.12;;;;;;;2.21;73.45;102264.95;1906976;75;21094;-66
2022/01/08 04:46:02;;;;;;;15.53;6.90;;;;;;;2.22;73.41;102273.66;1906900;75;21851;-68
2022/01/08 04:48:31;;;;;;;19.00;7.95;;;;;;;2.17;73.42;102272.25;1907086;75;21462;-65
2022/01/08 04:51:00;;;;;;;13.45;5.95;;;;;;;2.16;73.40;102274.41;1906972;75;21531;-68
2022/01/08 04:53:28;;;;;;;17.48;7.45;;;;;;;2.16;73.38;102271.81;1906846;75;21177;-66
2022/01/08 04:55:57;;;;;;;15.45;6.87;;;;;;;2.12;73.35;102275.17;1907168;75;21179;-66
2022/01/08 04:58:27;;;;;;;18.30;6.83;;;;;;;2.12;73.30;102275.17;1907192;75;21110;-66
2022/01/08 05:00:56;;;;;;;13.00;6.95;;;;;;;2.09;73.27;102277.73;1888859;75;21071;-71
2022/01/08 05:03:25;;;;;;;23.38;7.28;;;;;;;2.08;73.24;102283.75;1885096;76;21497;-72
2022/01/08 05:05:54;;;;;;;12.88;6.67;;;;;;;2.02;73.24;102277.14;1885007;76;21074;-65
2022/01/08 05:08:23;;;;;;;18.87;7.47;;;;;;;2.02;73.22;102287.53;1885107;76;21086;-67
2022/01/08 05:10:52;;;;;;;15.00;3.60;;;;;;;2.02;73.19;102291.43;1885119;76;21082;-68
2022/01/08 05:13:20;;;;;;;13.25;5.80;;;;;;;2.00;73.19;102287.92;1885069;76;21023;-68
2022/01/08 05:15:49;;;;;;;17.55;6.30;;;;;;;1.98;73.20;102287.89;1885138;76;21058;-63
2022/01/08 05:18:17;;;;;;;17.45;7.45;;;;;;;1.96;73.16;102293.91;1885003;76;21128;-64
2022/01/08 05:20:55;;;;;;;14.75;6.22;;;;;;;1.93;73.19;102292.97;1885190;76;21023;-67
2022/01/08 05:23:18;;;;;;;15.78;6.78;;;;;;;1.90;73.16;102294.23;1885407;76;21129;-67
2022/01/08 05:25:47;;;;;;;14.47;5.17;;;;;;;1.89;73.16;102285.96;1885101;76;21042;-69
2022/01/08 05:28:15;;;;;;;15.72;7.22;;;;;;;1.90;73.08;102298.52;1885068;76;21067;-68
2022/01/08 05:30:44;;;;;;;18.10;7.50;;;;;;;1.86;73.04;102291.11;1892872;75;21153;-69
2022/01/08 05:33:13;;;;;;;15.08;7.67;;;;;;;1.83;73.05;102301.42;1901895;75;21098;-69
2022/01/08 05:35:42;;;;;;;16.05;7.60;;;;;;;1.84;73.02;102302.30;1901864;75;21573;-67
2022/01/08 05:38:12;;;;;;;11.55;5.80;;;;;;;1.81;73.06;102297.92;1901387;75;21832;-68
2022/01/08 05:40:41;;;;;;;11.15;4.78;;;;;;;1.78;73.00;102291.34;1901722;75;21133;-67
2022/01/08 05:43:10;;;;;;;18.25;7.58;;;;;;;1.73;73.01;102292.96;1901914;75;21482;-64
2022/01/08 05:45:39;;;;;;;11.73;5.78;;;;;;;1.73;73.04;102292.96;1911920;75;21145;-64
2022/01/08 05:48:08;;;;;;;16.12;7.75;;;;;;;1.73;73.01;102290.36;1914413;75;21441;-64
2022/01/08 05:50:37;;;;;;;23.92;6.90;;;;;;;1.73;73.06;102296.45;1914206;75;21026;-64
2022/01/08 05:53:07;;;;;;;16.85;7.80;;;;;;;1.76;73.05;102296.06;1914241;75;21062;-64
2022/01/08 05:55:35;;;;;;;19.92;7.65;;;;;;;1.77;72.96;102292.21;1914141;75;21018;-62
2022/01/08 05:58:04;;;;;;;13.25;6.42;;;;;;;1.81;72.96;102302.21;1914137;75;21035;-63
2022/01/08 06:00:33;;;;;;;16.57;7.25;;;;;;;1.83;72.93;102297.53;1935748;74;21086;-63
2022/01/08 06:03:02;;;;;;;17.27;7.87;;;;;;;1.83;72.90;102298.83;1946387;74;21169;-63
2022/01/08 06:05:35;;;;;;;16.62;5.33;;;;;;;1.88;72.91;102302.41;1946246;74;21027;-69
2022/01/08 06:08:01;;;;;;;17.23;7.03;;;;;;;1.93;72.84;102302.50;1945118;74;21051;-67
2022/01/08 06:10:29;;;;;;;13.05;6.42;;;;;;;1.94;72.75;102300.37;1946241;73;21043;-70
2022/01/08 06:12:58;;;;;;;15.83;8.30;;;;;;;1.95;72.72;102298.20;1946146;74;21521;-62
2022/01/08 06:15:27;;;;;;;15.75;8.08;;;;;;;1.93;72.77;102300.77;1946199;74;21046;-67
2022/01/08 06:17:56;;;;;;;17.48;7.67;;;;;;;1.94;72.74;102305.56;1946153;74;21055;-66
2022/01/08 06:20:26;;;;;;;15.28;6.97;;;;;;;1.98;72.72;102302.61;1946129;74;21130;-70
2022/01/08 06:22:55;;;;;;;18.10;7.30;;;;;;;2.01;72.67;102305.25;1946016;74;21129;-69
2022/01/08 06:25:24;;;;;;;21.33;8.15;;;;;;;1.99;72.58;102306.94;1946214;73;21112;-66
2022/01/08 06:27:54;;;;;;;11.38;6.65;;;;;;;1.97;72.56;102304.73;1946120;74;21609;-66
2022/01/08 06:30:23;;;;;;;19.35;7.70;;;;;;;1.99;72.54;102303.05;1946319;73;21524;-67
2022/01/08 06:32:52;;;;;;;10.58;5.17;;;;;;;1.98;72.56;102303.91;1952174;73;21058;-63
2022/01/08 06:35:20;;;;;;;14.80;5.50;;;;;;;2.01;72.51;102303.95;1952029;73;21535;-64
2022/01/08 06:37:49;;;;;;;13.35;5.90;;;;;;;2.00;72.46;102308.71;1952072;73;21096;-63
2022/01/08 06:40:18;;;;;;;11.57;4.92;;;;;;;1.96;72.42;102309.06;1952155;73;21026;-64
2022/01/08 06:42:47;;;;;;;16.15;6.80;;;;;;;1.92;72.39;102310.72;1952166;73;21026;-64
2022/01/08 06:45:16;;;;;;;15.15;6.58;;;;;;;1.91;72.46;102310.68;1951998;73;21140;-64
2022/01/08 06:47:45;;;;;;;13.10;5.28;;;;;;;1.89;72.42;102304.14;1951921;73;21042;-68
2022/01/08 06:50:15;;;;;;;13.65;6.42;;;;;;;1.90;72.45;102305.02;1951784;73;21097;-67
2022/01/08 06:52:44;;;;;;;23.25;7.35;;;;;;;1.94;72.41;102304.27;1952106;73;21159;-67
2022/01/08 06:55:13;;;;;;;15.35;7.35;;;;;;;1.94;72.47;102297.77;1952096;73;21116;-67
2022/01/08 06:57:43;;;;;;;17.75;6.92;;;;;;;1.99;72.55;102300.45;1952151;73;21433;-66
2022/01/08 07:00:12;;;;;;;18.12;8.13;;;;;;;2.00;72.50;102293.98;1938457;73;21075;-65
2022/01/08 07:02:41;;;;;;;14.70;6.90;;;;;;;2.03;72.37;102294.47;1893224;74;21092;-66
2022/01/08 07:05:10;;;;;;;16.45;7.20;;;;;;;2.05;72.31;102292.80;1926378;74;21018;-66
2022/01/08 07:07:39;;;;;;;13.08;5.70;;;;;;;2.06;72.27;102290.64;1926471;74;21476;-66
2022/01/08 07:10:09;;;;;;;10.95;4.83;;;;;;;2.10;72.29;102297.65;1926301;74;21046;-66
2022/01/08 07:12:38;;;;;;;19.02;7.95;;;;;;;2.12;72.25;102295.95;1926378;74;21026;-65
2022/01/08 07:15:07;;;;;;;23.10;10.18;;;;;;;2.12;72.23;102306.34;1926127;74;21026;-66
2022/01/08 07:17:36;;;;;;;16.57;9.08;;;;;;;2.13;72.22;102310.29;1926358;74;21050;-64
2022/01/08 07:20:06;;;;;;;10.68;4.35;;;;;;;2.09;72.16;102308.91;1926263;74;21163;-65
2022/01/08 07:22:35;;;;;;;14.60;6.53;;;;;;;2.03;72.17;102302.27;1926315;74;21139;-59
2022/01/08 07:25:06;;;;;;;11.78;5.67;;;;;;;1.96;72.26;102304.30;1926333;73;21077;-60
2022/01/08 07:27:36;;;;;;;17.70;5.90;;;;;;;1.92;72.26;102305.52;1926358;74;21002;-59
2022/01/08 07:30:07;;;;;;;12.25;5.47;;;;;;;1.91;72.30;102301.16;1926380;74;21143;-60
2022/01/08 07:32:47;;;;;;;11.08;3.95;;;;;;;1.93;72.37;102299.89;1920986;74;21189;-59
2022/01/08 07:35:19;;;;;;;13.55;6.58;;;;;;;1.91;72.37;102305.05;1918437;74;21127;-59
2022/01/08 07:37:47;;;;;;;8.13;3.80;;;;;;;1.92;72.41;102302.92;1918347;75;21071;-60
2022/01/08 07:40:17;;;;;;;19.60;7.42;;;;;;;1.95;72.34;102299.94;1931304;73;21523;-59
2022/01/08 07:42:46;;;;;;;10.03;4.45;;;;;;;1.93;72.35;102307.69;1949842;73;21481;-59
2022/01/08 07:45:15;;;;;;;18.77;8.38;;;;;;;1.93;72.42;102298.16;1949002;73;21077;-59
2022/01/08 07:47:44;;;;;;;12.45;5.67;;;;;;;1.93;72.49;102297.30;1950088;73;21546;-59
2022/01/08 07:50:13;;;;;;;12.07;5.60;;;;;;;1.92;72.51;102297.73;1950157;73;21525;-59
2022/01/08 07:52:43;;;;;;;15.50;7.28;;;;;;;1.92;72.57;102295.13;1949570;73;21626;-59
2022/01/08 07:55:13;;;;;;;19.50;11.33;;;;;;;1.91;72.58;102289.47;1949153;73;21090;-59
2022/01/08 07:57:42;;;;;;;28.10;11.63;;;;;;;1.97;72.57;102288.72;1941709;73;20995;-59
2022/01/08 08:00:11;;;;;;;17.85;7.75;;;;;;;2.01;72.50;102283.17;1933644;73;21424;-59
2022/01/08 08:02:39;;;;;;;12.93;5.90;;;;;;;2.03;72.51;102281.08;1917703;74;21043;-59
2022/01/08 08:05:09;;;;;;;16.17;8.78;;;;;;;2.04;72.51;102284.55;1928210;74;21048;-59
2022/01/08 08:07:38;;;;;;;22.65;9.65;;;;;;;2.06;72.52;102281.55;1928311;74;21563;-59
2022/01/08 08:10:13;;;;;;;18.42;7.22;;;;;;;2.10;72.50;102276.47;1928386;74;21509;-59
2022/01/08 08:12:43;;;;;;;18.73;8.38;;;;;;;2.17;72.48;102279.17;1928420;74;21079;-58
2022/01/08 08:15:15;;;;;;;12.23;6.20;;;;;;;2.21;72.46;102272.75;1928428;74;21040;-59
2022/01/08 08:17:43;;;;;;;14.28;6.12;;;;;;;2.23;72.47;102268.49;1927816;74;21121;-59
2022/01/08 08:20:12;;;;;;;32.03;14.05;;;;;;;2.21;72.44;102264.09;1928557;74;21467;-59
2022/01/08 08:22:42;;;;;;;12.00;5.75;;;;;;;2.21;72.47;102257.16;1925055;74;21050;-59
2022/01/08 08:25:12;;;;;;;10.03;4.87;;;;;;;2.26;72.52;102250.77;1927951;74;21442;-59
2022/01/08 08:27:41;;;;;;;10.95;5.55;;;;;;;2.29;72.45;102249.55;1924748;74;21044;-59
2022/01/08 08:30:10;;;;;;;7.47;4.15;;;;;;;2.29;72.39;102251.70;1924787;74;21029;-59
2022/01/08 08:32:40;;;;;;;15.43;7.65;;;;;;;2.29;72.40;102250.41;1917904;73;21078;-59
2022/01/08 08:35:10;;;;;;;16.70;7.03;;;;;;;2.28;72.43;102240.84;1907573;75;21071;-58
2022/01/08 08:37:40;;;;;;;19.40;7.92;;;;;;;2.33;72.45;102238.34;1904898;75;21033;-59
2022/01/08 08:40:11;;;;;;;13.20;5.58;;;;;;;2.35;72.53;102228.85;1861725;76;21025;-58
2022/01/08 08:42:41;;;;;;;13.45;6.28;;;;;;;2.39;72.58;102230.66;1890003;75;21017;-58
2022/01/08 08:45:11;;;;;;;32.45;11.03;;;;;;;2.43;72.54;102226.39;1870173;76;21103;-59
2022/01/08 08:47:40;;;;;;;18.62;7.12;;;;;;;2.51;72.49;102217.02;1898852;74;21535;-58
2022/01/08 08:50:12;;;;;;;6.58;3.80;;;;;;;2.57;72.42;102214.52;1865106;77;21123;-59
2022/01/08 08:52:40;;;;;;;17.65;6.25;;;;;;;2.62;72.36;102210.28;1898753;75;21464;-59
2022/01/08 08:55:10;;;;;;;9.43;4.97;;;;;;;2.62;72.26;102210.28;1864998;77;21069;-59
2022/01/08 08:57:38;;;;;;;13.32;5.45;;;;;;;2.62;72.25;102210.28;1898762;75;21464;-59
2022/01/08 09:00:08;;;;;;;5.90;3.52;;;;;;;2.61;72.28;102209.81;1865082;77;21049;-59
2022/01/08 09:02:37;;;;;;;12.98;5.53;;;;;;;2.66;72.16;102199.08;1898860;75;21119;-59
2022/01/08 09:05:07;;;;;;;14.28;5.33;;;;;;;2.69;72.18;102187.44;1864958;77;21147;-59
2022/01/08 09:07:36;;;;;;;15.63;7.08;;;;;;;2.73;72.13;102180.96;1898748;74;21160;-59
2022/01/08 09:10:06;;;;;;;13.60;6.22;;;;;;;2.79;72.09;102178.48;1865084;77;21346;-59
2022/01/08 09:12:35;;;;;;;18.52;7.55;;;;;;;2.84;72.04;102176.80;1898876;74;21100;-59
2022/01/08 09:15:05;;;;;;;11.78;5.20;;;;;;;2.92;71.99;102182.16;1865104;77;21057;-58
2022/01/08 09:17:35;;;;;;;10.28;5.53;;;;;;;2.91;71.86;102185.16;1898867;75;21103;-59
2022/01/08 09:20:05;;;;;;;18.20;8.53;;;;;;;2.90;71.78;102170.41;1864864;77;21496;-60
2022/01/08 09:22:34;;;;;;;9.10;5.03;;;;;;;2.90;71.77;102163.91;1898764;75;21053;-59
2022/01/08 09:25:03;;;;;;;13.50;3.60;;;;;;;2.95;71.84;102168.77;1865198;77;21582;-58
2022/01/08 09:27:32;;;;;;;17.25;7.35;;;;;;;2.93;71.80;102160.03;1898672;75;21038;-58
2022/01/08 09:30:02;;;;;;;5.45;3.17;;;;;;;2.87;71.89;102156.91;1864987;77;21488;-59
2022/01/08 09:32:31;;;;;;;9.95;4.62;;;;;;;2.94;72.01;102153.13;1900281;74;21541;-59
2022/01/08 09:35:00;;;;;;;23.02;7.92;;;;;;;2.97;72.00;102147.95;1927003;74;21220;-59
2022/01/08 09:37:28;;;;;;;17.30;6.05;;;;;;;2.96;72.01;102141.87;1927097;74;21122;-59
2022/01/08 09:39:57;;;;;;;9.05;3.92;;;;;;;2.93;72.09;102140.52;1927007;74;21056;-59
2022/01/08 09:42:26;;;;;;;21.07;8.03;;;;;;;2.96;72.18;102136.67;1926972;74;21556;-59
2022/01/08 09:44:55;;;;;;;14.07;6.40;;;;;;;2.93;72.24;102135.75;1926976;74;21068;-59
2022/01/08 09:47:23;;;;;;;12.90;5.20;;;;;;;2.99;72.33;102141.03;1927195;74;21039;-59
2022/01/08 09:49:52;;;;;;;26.40;8.98;;;;;;;3.05;72.29;102138.11;1926947;74;21048;-58
2022/01/08 09:52:21;;;;;;;16.20;6.42;;;;;;;3.04;72.35;102130.27;1927003;74;21138;-59
2022/01/08 09:54:50;;;;;;;22.17;9.35;;;;;;;3.02;72.39;102122.44;1926945;74;21122;-59
2022/01/08 09:57:18;;;;;;;13.85;6.35;;;;;;;3.03;72.50;102120.73;1927028;74;21532;-59
2022/01/08 09:59:48;;;;;;;11.85;5.08;;;;;;;3.09;72.49;102125.58;1926878;74;21599;-59
2022/01/08 10:02:21;;;;;;;15.58;7.30;;;;;;;3.12;72.43;102126.08;1926963;74;21526;-59
2022/01/08 10:04:52;;;;;;;14.50;6.22;;;;;;;3.08;72.41;102126.45;1927156;74;21553;-59
2022/01/08 10:07:26;;;;;;;17.20;7.87;;;;;;;3.09;72.46;102130.78;1927117;74;21114;-59
2022/01/08 10:10:13;;;;;;;22.98;6.95;;;;;;;3.09;72.48;102122.98;1926944;74;21036;-60
2022/01/08 10:12:45;;;;;;;18.80;7.70;;;;;;;3.16;72.44;102118.75;1926962;74;21036;-59
2022/01/08 10:18:05;;;;;;;11.00;5.12;;;;;;;3.26;72.43;102115.83;1927006;74;21016;-59
2022/01/08 10:20:39;;;;;;;21.27;7.15;;;;;;;3.31;72.37;102103.75;1926885;74;21040;-59
2022/01/08 10:23:17;;;;;;;15.78;6.70;;;;;;;3.33;72.34;102100.73;1925705;74;21071;-58
2022/01/08 10:26:10;;;;;;;23.92;8.18;;;;;;;3.34;72.29;102098.59;1927006;74;21518;-59
2022/01/08 10:28:50;;;;;;;18.12;7.05;;;;;;;3.35;72.28;102097.72;1926907;74;21052;-59
2022/01/08 10:31:22;;;;;;;14.85;5.55;;;;;;;3.33;72.39;102092.93;1926975;74;21092;-59
2022/01/08 10:33:53;;;;;;;21.33;8.43;;;;;;;3.32;72.42;102087.30;1929165;74;21080;-59
2022/01/08 10:36:25;;;;;;;18.52;8.03;;;;;;;3.34;72.49;102084.69;1931190;74;21035;-59
2022/01/08 10:38:56;;;;;;;12.15;4.58;;;;;;;3.34;72.54;102086.88;1932458;74;21043;-59
2022/01/08 10:41:26;;;;;;;12.98;4.83;;;;;;;3.34;72.58;102082.98;1933633;74;21025;-59
2022/01/08 10:44:14;;;;;;;12.88;6.08;;;;;;;3.37;72.63;102087.34;1933870;74;21012;-59
2022/01/08 10:47:07;;;;;;;19.70;7.95;;;;;;;3.39;72.63;102085.62;1933738;74;21145;-58
2022/01/08 10:49:42;;;;;;;16.52;5.47;;;;;;;3.42;72.67;102079.16;1933703;74;21529;-60
2022/01/08 10:52:13;;;;;;;14.50;7.05;;;;;;;3.47;72.74;102077.05;1933085;74;21039;-59
2022/01/08 10:54:44;;;;;;;23.55;6.70;;;;;;;3.52;72.68;102068.41;1932598;74;21447;-58
2022/01/08 10:57:14;;;;;;;10.45;4.87;;;;;;;3.56;72.63;102068.48;1933787;74;21048;-59
2022/01/08 10:59:44;;;;;;;16.20;7.17;;;;;;;3.58;72.71;102069.77;1933751;74;21486;-59
2022/01/08 11:02:15;;;;;;;18.55;7.25;;;;;;;3.59;72.74;102069.80;1933712;74;21040;-59
2022/01/08 11:04:50;;;;;;;18.42;7.55;;;;;;;3.57;72.85;102070.65;1933929;74;21036;-59
2022/01/08 11:07:27;;;;;;;27.20;10.10;;;;;;;3.57;72.91;102068.05;1933767;74;21048;-59
2022/01/08 11:10:05;;;;;;;14.95;7.30;;;;;;;3.61;72.96;102068.52;1933848;74;21117;-59
2022/01/08 11:12:35;;;;;;;28.00;11.22;;;;;;;3.62;73.00;102063.77;1931568;74;21112;-59
2022/01/08 11:15:24;;;;;;;13.88;5.42;;;;;;;3.63;72.97;102058.98;1933388;74;21503;-59
2022/01/08 11:17:45;;;;;;;20.35;7.58;;;;;;;3.64;72.97;102062.05;1931083;74;21044;-60
2022/01/08 11:20:29;;;;;;;12.80;5.95;;;;;;;3.64;72.96;102056.41;1932345;74;21122;-59
2022/01/08 11:22:59;;;;;;;14.55;6.72;;;;;;;3.65;72.93;102050.35;1933924;74;21041;-59
2022/01/08 11:25:34;;;;;;;13.80;6.33;;;;;;;3.67;73.02;102049.03;1933816;74;21044;-59
2022/01/08 11:28:14;;;;;;;19.30;7.30;;;;;;;3.71;73.07;102049.94;1933880;74;21059;-59
2022/01/08 11:30:48;;;;;;;21.70;8.35;;;;;;;3.75;73.02;102045.23;1933810;74;21121;-59
2022/01/08 11:33:23;;;;;;;22.42;8.58;;;;;;;3.78;72.94;102042.23;1933432;74;21119;-60
2022/01/08 11:35:52;;;;;;;10.98;5.55;;;;;;;3.81;72.89;102030.95;1928902;74;21181;-59
2022/01/08 11:38:23;;;;;;;14.53;6.58;;;;;;;3.83;72.84;102031.84;1928460;74;21118;-59
2022/01/08 11:40:54;;;;;;;14.83;7.58;;;;;;;3.83;72.80;102029.23;1928342;74;21052;-59
2022/01/08 11:43:25;;;;;;;19.55;8.13;;;;;;;3.80;72.62;102033.09;1928340;74;21098;-59
2022/01/08 11:46:03;;;;;;;16.55;5.83;;;;;;;3.76;72.72;102030.92;1928229;74;21036;-59
2022/01/08 11:48:41;;;;;;;20.57;8.15;;;;;;;3.78;72.75;102031.81;1928370;74;21110;-59
2022/01/08 11:51:16;;;;;;;14.07;6.83;;;;;;;3.79;72.76;102028.33;1928495;74;21040;-59
2022/01/08 11:53:51;;;;;;;20.70;7.33;;;;;;;3.80;72.59;102026.18;1928465;74;21036;-59
2022/01/08 11:59:21;;;;;;;13.75;7.28;;;;;;;3.77;72.63;102025.28;1915231;74;21059;-59
2022/01/08 12:02:11;;;;;;;21.85;8.80;;;;;;;3.78;72.61;102022.69;1915449;75;21108;-59